Time;durP1;ratioP1;P1;durP2;ratioP2;P2;SDS_P1;SDS_P2;PMS_P1;PMS_P2;Temp;Humidity;BMP_temperature;BMP_pressure;BME280_temperature;BME280_humidity;BME280_pressure;Samples;Min_cycle;Max_cycle;Signal;HPM_P1;HPM_P2
2022/05/26 00:00:08;;;;;;;1.40;0.93;;;;;;;;;;5098175;28;20201;-65
2022/05/26 00:02:38;;;;;;;1.13;0.90;;;;;;;;;;5099888;28;20226;-65
2022/05/26 00:05:07;;;;;;;1.43;0.70;;;;;;;;;;5097803;28;20214;-65
2022/05/26 00:07:35;;;;;;;0.77;0.77;;;;;;;;;;5098990;28;20197;-67
2022/05/26 00:10:03;;;;;;;0.83;0.53;;;;;;;;;;5100033;28;20276;-67
2022/05/26 00:12:34;;;;;;;2.43;0.57;;;;;;;;;;5099799;28;20685;-67
2022/05/26 00:15:02;;;;;;;2.23;0.63;;;;;;;;;;5099998;28;20574;-67
2022/05/26 00:17:30;;;;;;;0.60;0.57;;;;;;;;;;5099609;28;20194;-67
2022/05/26 00:20:00;;;;;;;1.13;0.60;;;;;;;;;;5099733;28;20205;-67
2022/05/26 00:22:28;;;;;;;1.93;0.70;;;;;;;;;;5099939;28;20198;-66
2022/05/26 00:24:56;;;;;;;1.97;0.63;;;;;;;;;;5100200;28;20213;-66
2022/05/26 00:27:24;;;;;;;0.73;0.73;;;;;;;;;;5099805;28;20282;-64
2022/05/26 00:29:53;;;;;;;2.53;0.57;;;;;;;;;;5100317;28;20236;-66
2022/05/26 00:32:21;;;;;;;1.43;0.63;;;;;;;;;;5100048;28;20206;-67
2022/05/26 00:34:49;;;;;;;0.70;0.50;;;;;;;;;;5099694;28;20241;-66
2022/05/26 00:37:19;;;;;;;3.23;0.60;;;;;;;;;;5100077;28;20237;-67
2022/05/26 00:39:47;;;;;;;1.03;0.90;;;;;;;;;;5100162;28;20226;-66
2022/05/26 00:42:16;;;;;;;0.60;0.60;;;;;;;;;;5099848;28;20573;-66
2022/05/26 00:44:44;;;;;;;1.53;0.80;;;;;;;;;;5096645;28;20248;-66
2022/05/26 00:47:14;;;;;;;0.53;0.53;;;;;;;;;;5099693;28;20251;-66
2022/05/26 00:49:45;;;;;;;2.00;0.50;;;;;;;;;;5099662;28;20225;-66
2022/05/26 00:52:14;;;;;;;0.43;0.40;;;;;;;;;;5099794;28;20202;-66
2022/05/26 00:54:44;;;;;;;1.00;0.63;;;;;;;;;;5099204;28;20257;-67
2022/05/26 00:57:16;;;;;;;0.70;0.60;;;;;;;;;;5099686;28;20233;-65
2022/05/26 00:59:45;;;;;;;1.33;0.73;;;;;;;;;;5099638;28;20229;-64
2022/05/26 01:02:15;;;;;;;5.00;0.87;;;;;;;;;;5099519;28;20229;-66
2022/05/26 01:04:44;;;;;;;2.13;0.60;;;;;;;;;;5099363;28;20201;-65
2022/05/26 01:07:15;;;;;;;0.47;0.40;;;;;;;;;;5099384;28;20217;-65
2022/05/26 01:09:44;;;;;;;2.30;0.80;;;;;;;;;;5099285;28;20237;-64
2022/05/26 01:12:13;;;;;;;2.90;0.50;;;;;;;;;;5099562;28;20202;-64
2022/05/26 01:14:42;;;;;;;1.40;0.50;;;;;;;;;;5099098;28;20662;-64
2022/05/26 01:17:16;;;;;;;0.50;0.50;;;;;;;;;;5098844;28;20253;-64
2022/05/26 01:19:58;;;;;;;1.97;0.80;;;;;;;;;;5098956;28;20241;-65
2022/05/26 01:22:32;;;;;;;1.67;0.50;;;;;;;;;;5099445;28;20205;-65
2022/05/26 01:25:11;;;;;;;2.33;0.93;;;;;;;;;;5099219;28;20209;-64
2022/05/26 01:27:42;;;;;;;0.60;0.60;;;;;;;;;;5099014;28;20570;-66
2022/05/26 01:30:24;;;;;;;3.30;0.70;;;;;;;;;;5099153;28;20237;-66
2022/05/26 01:33:10;;;;;;;0.73;0.73;;;;;;;;;;5099111;28;20224;-65
2022/05/26 01:35:42;;;;;;;2.07;0.70;;;;;;;;;;5088709;28;20291;-64
2022/05/26 01:38:17;;;;;;;1.07;0.63;;;;;;;;;;5098548;28;20232;-66
2022/05/26 01:40:48;;;;;;;1.80;0.50;;;;;;;;;;5098990;28;20234;-66
2022/05/26 01:43:20;;;;;;;5.57;2.70;;;;;;;;;;5098641;28;20641;-66
2022/05/26 01:45:51;;;;;;;0.57;0.57;;;;;;;;;;5098590;28;20225;-66
2022/05/26 01:48:24;;;;;;;1.17;0.93;;;;;;;;;;5098690;28;20209;-66
2022/05/26 01:50:57;;;;;;;1.93;0.80;;;;;;;;;;5098310;28;20660;-66
2022/05/26 01:53:28;;;;;;;1.17;1.07;;;;;;;;;;5098731;28;22119;-66
2022/05/26 01:55:59;;;;;;;3.10;0.90;;;;;;;;;;5098723;28;20225;-66
2022/05/26 01:58:30;;;;;;;0.70;0.70;;;;;;;;;;5098035;28;20237;-66
2022/05/26 02:01:01;;;;;;;1.07;1.00;;;;;;;;;;5098272;28;20244;-67
2022/05/26 02:03:31;;;;;;;1.70;0.83;;;;;;;;;;5098262;28;20212;-66
2022/05/26 02:06:05;;;;;;;1.53;1.00;;;;;;;;;;5098074;28;20350;-66
2022/05/26 02:08:35;;;;;;;0.90;0.87;;;;;;;;;;5098325;28;20234;-66
2022/05/26 02:11:06;;;;;;;0.90;0.80;;;;;;;;;;5098218;28;20237;-66
2022/05/26 02:13:37;;;;;;;3.17;0.60;;;;;;;;;;5098105;28;20233;-66
2022/05/26 02:16:08;;;;;;;0.70;0.70;;;;;;;;;;5097835;28;20288;-66
2022/05/26 02:18:39;;;;;;;0.80;0.80;;;;;;;;;;5097902;28;20198;-66
2022/05/26 02:21:10;;;;;;;3.17;0.60;;;;;;;;;;5098437;28;20212;-66
2022/05/26 02:23:41;;;;;;;1.50;0.87;;;;;;;;;;5098129;28;20201;-66
2022/05/26 02:26:09;;;;;;;1.33;0.60;;;;;;;;;;5097898;28;20249;-66
2022/05/26 02:31:20;;;;;;;0.80;0.80;;;;;;;;;;5097538;28;20241;-66
2022/05/26 02:33:48;;;;;;;0.50;0.50;;;;;;;;;;5097806;28;20296;-66
2022/05/26 02:36:18;;;;;;;1.73;0.83;;;;;;;;;;5097752;28;20355;-66
2022/05/26 02:38:46;;;;;;;0.83;0.73;;;;;;;;;;5098170;28;20209;-66
2022/05/26 02:41:14;;;;;;;1.40;0.67;;;;;;;;;;5098117;28;20239;-66
2022/05/26 02:43:42;;;;;;;1.33;0.70;;;;;;;;;;5097985;28;20241;-66
2022/05/26 02:46:14;;;;;;;1.33;0.60;;;;;;;;;;5097600;28;20274;-66
2022/05/26 02:48:51;;;;;;;1.23;0.60;;;;;;;;;;5097543;28;20237;-67
2022/05/26 02:51:24;;;;;;;0.83;0.50;;;;;;;;;;5097819;28;20205;-66
2022/05/26 02:53:55;;;;;;;2.37;0.70;;;;;;;;;;5097796;28;20244;-66
2022/05/26 02:56:31;;;;;;;1.20;0.60;;;;;;;;;;5097827;28;20267;-66
2022/05/26 02:59:06;;;;;;;0.87;0.50;;;;;;;;;;5097408;28;20570;-66
2022/05/26 03:01:36;;;;;;;1.90;0.50;;;;;;;;;;5097495;28;20268;-66
2022/05/26 03:04:07;;;;;;;2.63;0.73;;;;;;;;;;5097500;28;20280;-66
2022/05/26 03:06:39;;;;;;;1.47;0.80;;;;;;;;;;5097485;28;20225;-66
2022/05/26 03:09:08;;;;;;;0.67;0.67;;;;;;;;;;5098431;28;20546;-66
2022/05/26 03:11:43;;;;;;;0.70;0.50;;;;;;;;;;5101596;28;20237;-66
2022/05/26 03:14:11;;;;;;;1.30;0.60;;;;;;;;;;5101524;28;20653;-66
2022/05/26 03:16:39;;;;;;;0.90;0.60;;;;;;;;;;5101050;28;20357;-66
2022/05/26 03:19:07;;;;;;;2.37;0.67;;;;;;;;;;5101335;28;20227;-66
2022/05/26 03:21:36;;;;;;;1.90;0.70;;;;;;;;;;5101323;28;20715;-66
2022/05/26 03:24:05;;;;;;;1.33;0.50;;;;;;;;;;5101197;28;20228;-66
2022/05/26 03:26:33;;;;;;;1.90;0.70;;;;;;;;;;5101227;28;20229;-66
2022/05/26 03:29:02;;;;;;;0.80;0.70;;;;;;;;;;5101589;28;20237;-66
2022/05/26 03:31:30;;;;;;;0.80;0.70;;;;;;;;;;5101331;28;20238;-64
2022/05/26 03:42:18;;;;;;;4.10;0.80;;;;;;;;;;5101348;28;20237;-64
2022/05/26 03:44:46;;;;;;;1.10;0.70;;;;;;;;;;5101192;28;20236;-64
2022/05/26 03:47:14;;;;;;;1.53;0.93;;;;;;;;;;5100442;28;20261;-64
2022/05/26 03:49:42;;;;;;;2.47;0.80;;;;;;;;;;5100424;28;20670;-63
2022/05/26 03:52:12;;;;;;;0.70;0.70;;;;;;;;;;5101059;28;20202;-64
2022/05/26 03:54:40;;;;;;;3.40;1.50;;;;;;;;;;5100455;28;20734;-63
2022/05/26 03:57:08;;;;;;;3.60;1.20;;;;;;;;;;5100805;28;20284;-64
2022/05/26 03:59:40;;;;;;;3.40;0.70;;;;;;;;;;5100812;28;20243;-63
2022/05/26 04:02:08;;;;;;;1.67;0.70;;;;;;;;;;5099970;28;20615;-63
2022/05/26 04:04:36;;;;;;;1.13;0.90;;;;;;;;;;5098757;28;20319;-64
2022/05/26 04:07:04;;;;;;;3.33;1.00;;;;;;;;;;5097931;28;20232;-63
2022/05/26 04:09:34;;;;;;;2.57;0.80;;;;;;;;;;5095424;28;20236;-64
2022/05/26 04:12:03;;;;;;;2.70;1.73;;;;;;;;;;5098285;28;20254;-64
2022/05/26 04:14:31;;;;;;;1.07;0.70;;;;;;;;;;5097694;28;20229;-64
2022/05/26 04:16:59;;;;;;;1.40;0.87;;;;;;;;;;5096600;28;20638;-64
2022/05/26 04:19:27;;;;;;;5.20;1.10;;;;;;;;;;5097398;28;20194;-64
2022/05/26 04:24:43;;;;;;;1.80;0.90;;;;;;;;;;5096467;28;20201;-64
2022/05/26 04:27:11;;;;;;;1.20;1.10;;;;;;;;;;5094850;28;20359;-64
2022/05/26 04:29:39;;;;;;;1.63;0.93;;;;;;;;;;5095171;28;20204;-64
2022/05/26 04:32:08;;;;;;;2.20;0.70;;;;;;;;;;5097512;28;20201;-64
2022/05/26 04:34:36;;;;;;;1.17;0.90;;;;;;;;;;5094788;28;20206;-64
2022/05/26 04:37:04;;;;;;;1.93;0.90;;;;;;;;;;5097744;28;20264;-64
2022/05/26 04:39:34;;;;;;;1.50;1.27;;;;;;;;;;5094866;28;20197;-64
2022/05/26 04:42:04;;;;;;;1.33;0.90;;;;;;;;;;5097832;28;20240;-64
2022/05/26 04:44:34;;;;;;;2.33;1.30;;;;;;;;;;5098614;28;20232;-64
2022/05/26 04:47:02;;;;;;;1.80;1.23;;;;;;;;;;5095732;28;20221;-63
2022/05/26 04:49:30;;;;;;;1.37;1.00;;;;;;;;;;5098461;28;20232;-64
2022/05/26 04:51:58;;;;;;;0.90;0.90;;;;;;;;;;5098064;28;20292;-64
2022/05/26 04:54:27;;;;;;;0.60;0.60;;;;;;;;;;5098456;28;20208;-64
2022/05/26 04:56:56;;;;;;;3.97;1.20;;;;;;;;;;5098159;28;20659;-64
2022/05/26 04:59:25;;;;;;;1.20;0.67;;;;;;;;;;5098292;28;20240;-63
2022/05/26 05:01:53;;;;;;;1.30;0.90;;;;;;;;;;5049859;28;1300616;-64
2022/05/26 05:04:23;;;;;;;0.90;0.90;;;;;;;;;;5098758;28;20680;-64
2022/05/26 05:06:51;;;;;;;1.90;0.80;;;;;;;;;;5099290;28;20225;-64
2022/05/26 05:09:19;;;;;;;0.60;0.60;;;;;;;;;;5099550;28;20244;-64
2022/05/26 05:11:47;;;;;;;3.10;0.77;;;;;;;;;;5098956;28;20696;-64
2022/05/26 05:14:15;;;;;;;4.40;1.17;;;;;;;;;;5098825;28;20591;-64
2022/05/26 05:16:45;;;;;;;2.30;0.90;;;;;;;;;;5098864;28;20249;-64
2022/05/26 05:19:15;;;;;;;2.13;0.67;;;;;;;;;;5098922;28;20205;-63
2022/05/26 05:21:44;;;;;;;1.63;0.80;;;;;;;;;;5098741;28;20684;-64
2022/05/26 05:24:15;;;;;;;0.90;0.87;;;;;;;;;;5098690;28;20667;-63
2022/05/26 05:26:45;;;;;;;0.70;0.70;;;;;;;;;;5099061;28;20716;-63
2022/05/26 05:29:16;;;;;;;2.03;0.80;;;;;;;;;;5099062;28;20241;-63
2022/05/26 05:31:46;;;;;;;0.90;0.90;;;;;;;;;;5098049;28;20217;-64
2022/05/26 05:34:15;;;;;;;1.97;0.90;;;;;;;;;;5098907;28;20257;-64
2022/05/26 05:36:43;;;;;;;0.83;0.60;;;;;;;;;;5098774;28;20233;-63
2022/05/26 05:39:11;;;;;;;2.53;0.87;;;;;;;;;;5098787;28;20209;-64
2022/05/26 05:41:44;;;;;;;1.63;0.60;;;;;;;;;;5098733;28;20310;-63
2022/05/26 05:44:12;;;;;;;1.93;0.83;;;;;;;;;;5098563;28;20519;-65
2022/05/26 05:49:36;;;;;;;3.33;1.10;;;;;;;;;;5136919;27;20543;-62
2022/05/26 05:52:06;;;;;;;2.17;0.50;;;;;;;;;;5136814;27;20239;-63
2022/05/26 05:54:34;;;;;;;2.67;1.00;;;;;;;;;;5135804;28;20229;-62
2022/05/26 05:57:02;;;;;;;0.60;0.60;;;;;;;;;;5135494;28;20259;-65
2022/05/26 05:59:30;;;;;;;1.47;0.50;;;;;;;;;;5135867;27;20204;-62
2022/05/26 06:01:57;;;;;;;2.00;1.47;;;;;;;;;;5131056;27;20232;-63
2022/05/26 06:04:47;;;;;;;0.77;0.70;;;;;;;;;;5105489;28;20737;-62
2022/05/26 06:07:16;;;;;;;3.30;0.77;;;;;;;;;;5114095;28;20229;-66
2022/05/26 06:09:44;;;;;;;1.47;0.53;;;;;;;;;;5125570;28;20225;-63
2022/05/26 06:12:13;;;;;;;2.97;0.93;;;;;;;;;;5135496;27;20243;-63
2022/05/26 06:14:42;;;;;;;3.53;0.87;;;;;;;;;;5135635;27;20208;-63
2022/05/26 06:17:10;;;;;;;3.70;0.97;;;;;;;;;;5121581;27;20220;-63
2022/05/26 06:19:39;;;;;;;1.80;0.90;;;;;;;;;;5114482;28;20224;-63
2022/05/26 06:22:10;;;;;;;1.20;0.87;;;;;;;;;;5113511;28;20215;-63
2022/05/26 06:24:39;;;;;;;1.83;0.93;;;;;;;;;;5134656;27;20752;-63
2022/05/26 06:29:49;;;;;;;2.17;0.93;;;;;;;;;;5135097;27;20260;-63
2022/05/26 06:29:59;;;;;;;2.87;0.83;;;;;;;;;;5135179;27;20235;-63
2022/05/26 06:38:00;;;;;;;1.13;0.90;;;;;;;;;;5134355;27;20667;-63
2022/05/26 06:40:29;;;;;;;1.60;1.00;;;;;;;;;;5134695;27;20215;-63
2022/05/26 06:42:57;;;;;;;1.93;0.80;;;;;;;;;;5134595;27;20239;-63
2022/05/26 06:45:25;;;;;;;1.63;0.77;;;;;;;;;;5134552;27;20315;-63
2022/05/26 06:47:53;;;;;;;3.30;0.80;;;;;;;;;;5134322;27;20236;-63
2022/05/26 06:50:21;;;;;;;2.27;1.27;;;;;;;;;;5130182;27;20212;-63
2022/05/26 06:52:49;;;;;;;21.00;14.17;;;;;;;;;;5103160;28;20237;-63
2022/05/26 06:55:19;;;;;;;2.83;1.67;;;;;;;;;;5113980;28;20232;-64
2022/05/26 06:57:47;;;;;;;4.23;1.00;;;;;;;;;;5123926;28;20232;-64
2022/05/26 07:00:15;;;;;;;1.27;0.90;;;;;;;;;;5106736;27;20661;-64
2022/05/26 07:02:44;;;;;;;1.43;1.13;;;;;;;;;;5100160;28;20263;-63
2022/05/26 07:05:12;;;;;;;0.60;0.60;;;;;;;;;;5099657;28;20225;-63
2022/05/26 07:07:41;;;;;;;0.67;0.67;;;;;;;;;;5100017;28;20212;-63
2022/05/26 07:10:11;;;;;;;2.10;1.27;;;;;;;;;;5099779;28;20619;-69
2022/05/26 07:12:41;;;;;;;2.57;0.87;;;;;;;;;;5100117;28;20262;-69
2022/05/26 07:15:10;;;;;;;1.43;1.27;;;;;;;;;;5100043;28;20239;-63
2022/05/26 07:17:45;;;;;;;1.43;0.70;;;;;;;;;;5100930;28;20670;-63
2022/05/26 07:20:13;;;;;;;1.23;0.80;;;;;;;;;;5100402;28;20205;-63
2022/05/26 07:22:41;;;;;;;1.50;0.90;;;;;;;;;;5097930;28;20205;-65
2022/05/26 07:25:10;;;;;;;2.63;0.70;;;;;;;;;;5097321;28;20657;-63
2022/05/26 07:27:38;;;;;;;1.10;0.80;;;;;;;;;;5099819;28;20209;-63
2022/05/26 07:30:10;;;;;;;1.63;1.27;;;;;;;;;;5109307;28;20252;-63
2022/05/26 07:32:38;;;;;;;0.93;0.80;;;;;;;;;;5119886;28;20236;-65
2022/05/26 07:35:10;;;;;;;2.10;0.80;;;;;;;;;;5119742;28;20204;-63
2022/05/26 07:43:15;;;;;;;2.67;0.70;;;;;;;;;;5087420;28;20266;-63
2022/05/26 07:45:44;;;;;;;2.37;0.97;;;;;;;;;;5099323;28;20394;-63
2022/05/26 07:48:12;;;;;;;3.60;1.40;;;;;;;;;;5098856;28;20241;-63
2022/05/26 07:50:41;;;;;;;2.83;1.23;;;;;;;;;;5099077;28;20206;-63
2022/05/26 07:53:09;;;;;;;2.10;1.03;;;;;;;;;;5099156;28;20229;-63
2022/05/26 07:55:38;;;;;;;0.87;0.83;;;;;;;;;;5099264;28;20673;-63
2022/05/26 07:58:07;;;;;;;0.97;0.90;;;;;;;;;;5105308;28;20228;-63
2022/05/26 08:00:34;;;;;;;3.70;0.93;;;;;;;;;;5119756;28;20196;-63
2022/05/26 08:03:05;;;;;;;1.07;1.00;;;;;;;;;;5119252;28;20212;-63
2022/05/26 08:05:33;;;;;;;1.90;0.90;;;;;;;;;;5119213;28;20225;-63
2022/05/26 08:08:01;;;;;;;3.03;0.80;;;;;;;;;;5119723;27;20209;-64
2022/05/26 08:10:29;;;;;;;4.40;0.97;;;;;;;;;;5105896;28;20253;-63
2022/05/26 08:12:57;;;;;;;1.43;0.93;;;;;;;;;;5098275;28;20229;-63
2022/05/26 08:15:27;;;;;;;1.10;0.90;;;;;;;;;;5096911;28;20621;-63
2022/05/26 08:17:55;;;;;;;1.67;1.20;;;;;;;;;;5097334;28;20201;-63
2022/05/26 08:20:25;;;;;;;1.40;0.87;;;;;;;;;;5098315;28;20248;-63
2022/05/26 08:22:53;;;;;;;2.97;1.00;;;;;;;;;;5098630;28;20236;-62
2022/05/26 08:25:21;;;;;;;2.50;1.00;;;;;;;;;;5098596;28;20202;-62
2022/05/26 08:27:49;;;;;;;3.73;1.27;;;;;;;;;;5099228;28;20205;-63
2022/05/26 08:30:17;;;;;;;2.03;0.97;;;;;;;;;;5098089;28;20245;-63
2022/05/26 08:32:45;;;;;;;1.10;1.00;;;;;;;;;;5100286;28;20229;-63
2022/05/26 08:35:13;;;;;;;1.57;1.20;;;;;;;;;;5097899;28;20237;-62
2022/05/26 08:37:43;;;;;;;3.57;0.80;;;;;;;;;;5097887;28;20694;-63
2022/05/26 08:40:17;;;;;;;1.23;1.13;;;;;;;;;;5098331;28;20239;-63
2022/05/26 08:42:45;;;;;;;0.93;0.70;;;;;;;;;;5084458;28;20205;-63
2022/05/26 08:45:14;;;;;;;1.13;0.53;;;;;;;;;;5097927;28;20292;-63
2022/05/26 08:47:44;;;;;;;1.87;1.10;;;;;;;;;;5097512;28;20700;-63
2022/05/26 08:50:13;;;;;;;1.43;1.33;;;;;;;;;;5097256;28;20221;-63
2022/05/26 08:52:44;;;;;;;1.63;0.90;;;;;;;;;;5097907;28;20225;-63
2022/05/26 08:55:16;;;;;;;2.80;0.90;;;;;;;;;;5096426;28;20197;-63
2022/05/26 08:57:50;;;;;;;2.43;0.80;;;;;;;;;;5097542;28;20628;-63
2022/05/26 09:00:19;;;;;;;1.50;0.97;;;;;;;;;;5095779;28;20198;-63
2022/05/26 09:02:51;;;;;;;3.50;0.73;;;;;;;;;;5099651;28;20209;-63
2022/05/26 09:05:19;;;;;;;1.63;0.70;;;;;;;;;;5097672;28;20224;-63
2022/05/26 09:13:30;;;;;;;2.00;0.93;;;;;;;;;;5097246;28;20205;-61
2022/05/26 09:15:59;;;;;;;0.80;0.80;;;;;;;;;;5098713;28;20221;-65
2022/05/26 09:18:27;;;;;;;1.47;0.73;;;;;;;;;;5098674;28;20405;-65
2022/05/26 09:20:55;;;;;;;2.63;0.87;;;;;;;;;;5095346;28;20224;-63
2022/05/26 09:23:24;;;;;;;0.60;0.60;;;;;;;;;;5097473;28;20202;-62
2022/05/26 09:25:55;;;;;;;2.13;1.30;;;;;;;;;;5094939;28;20649;-62
2022/05/26 09:28:28;;;;;;;2.10;0.83;;;;;;;;;;5099124;28;20209;-64
2022/05/26 09:30:56;;;;;;;3.43;1.00;;;;;;;;;;5096853;28;20253;-62
2022/05/26 09:33:28;;;;;;;2.30;1.10;;;;;;;;;;5094425;28;20202;-63
2022/05/26 09:36:13;;;;;;;3.50;1.20;;;;;;;;;;5092856;28;20217;-63
2022/05/26 09:38:43;;;;;;;3.37;1.20;;;;;;;;;;5096040;28;20206;-63
2022/05/26 09:41:14;;;;;;;1.30;1.00;;;;;;;;;;5097688;28;20217;-64
2022/05/26 09:43:47;;;;;;;2.00;1.00;;;;;;;;;;5097089;28;20197;-63
2022/05/26 09:46:16;;;;;;;0.80;0.80;;;;;;;;;;5096985;28;20245;-63
2022/05/26 09:48:45;;;;;;;1.10;0.90;;;;;;;;;;5096823;28;20646;-63
2022/05/26 09:51:15;;;;;;;1.47;0.93;;;;;;;;;;5095715;28;20278;-63
2022/05/26 09:53:45;;;;;;;2.57;0.80;;;;;;;;;;5096933;28;20201;-63
2022/05/26 09:56:27;;;;;;;1.53;1.00;;;;;;;;;;5098002;28;20221;-63
2022/05/26 09:58:55;;;;;;;1.90;1.43;;;;;;;;;;5094390;28;20198;-65
2022/05/26 10:01:36;;;;;;;1.20;0.80;;;;;;;;;;5097917;28;20225;-64
2022/05/26 10:04:09;;;;;;;1.70;1.10;;;;;;;;;;5095337;28;20233;-64
2022/05/26 10:06:40;;;;;;;1.30;1.07;;;;;;;;;;5094204;28;20233;-65
2022/05/26 10:09:16;;;;;;;1.43;1.13;;;;;;;;;;5097518;28;20259;-64
2022/05/26 10:11:52;;;;;;;2.93;1.20;;;;;;;;;;5094869;28;20240;-65
2022/05/26 10:14:32;;;;;;;2.17;1.20;;;;;;;;;;5094681;28;20686;-63
2022/05/26 10:17:03;;;;;;;3.37;1.40;;;;;;;;;;5093395;28;20228;-62
2022/05/26 10:19:39;;;;;;;3.63;0.80;;;;;;;;;;5098093;28;20201;-63
2022/05/26 10:22:15;;;;;;;3.00;1.60;;;;;;;;;;5094700;28;20208;-64
2022/05/26 10:24:54;;;;;;;0.77;0.77;;;;;;;;;;5097818;28;20201;-64
2022/05/26 10:27:29;;;;;;;2.03;1.03;;;;;;;;;;5117532;28;20270;-64
2022/05/26 10:30:14;;;;;;;1.30;0.73;;;;;;;;;;5117384;28;20263;-63
2022/05/26 10:32:46;;;;;;;1.27;1.10;;;;;;;;;;5113199;28;20225;-64
2022/05/26 10:35:19;;;;;;;2.17;0.80;;;;;;;;;;5098982;28;20209;-64
2022/05/26 10:37:55;;;;;;;1.80;1.37;;;;;;;;;;5100932;28;20259;-63
2022/05/26 10:40:30;;;;;;;3.53;2.20;;;;;;;;;;5100579;28;20893;-64
2022/05/26 10:43:03;;;;;;;1.23;0.90;;;;;;;;;;5100512;28;20278;-64
2022/05/26 10:45:34;;;;;;;1.73;0.80;;;;;;;;;;5100453;28;20297;-64
2022/05/26 10:48:05;;;;;;;1.47;1.27;;;;;;;;;;5100305;28;20241;-64
2022/05/26 10:50:37;;;;;;;1.93;0.80;;;;;;;;;;5100515;28;20627;-64
2022/05/26 10:53:09;;;;;;;1.13;0.83;;;;;;;;;;5100472;28;20201;-62
2022/05/26 10:55:42;;;;;;;5.17;0.90;;;;;;;;;;5100528;28;20233;-62
2022/05/26 10:58:16;;;;;;;1.10;1.00;;;;;;;;;;5100188;28;20206;-62
2022/05/26 11:00:47;;;;;;;1.53;1.00;;;;;;;;;;5100159;28;20291;-64
2022/05/26 11:03:19;;;;;;;2.60;1.10;;;;;;;;;;5100012;28;20260;-63
2022/05/26 11:05:50;;;;;;;1.60;1.10;;;;;;;;;;5100462;28;20280;-63
2022/05/26 11:08:26;;;;;;;1.97;0.90;;;;;;;;;;5099833;28;20570;-64
2022/05/26 11:10:55;;;;;;;1.80;0.70;;;;;;;;;;5100399;28;20270;-63
2022/05/26 11:13:33;;;;;;;2.23;1.10;;;;;;;;;;5100082;28;20641;-63
2022/05/26 11:18:51;;;;;;;0.80;0.80;;;;;;;;;;5109330;28;20209;-63
2022/05/26 11:21:20;;;;;;;0.97;0.83;;;;;;;;;;5099997;28;20673;-64
2022/05/26 11:23:48;;;;;;;1.43;1.07;;;;;;;;;;5099597;28;20205;-64
2022/05/26 11:26:21;;;;;;;3.20;1.17;;;;;;;;;;5099955;28;20236;-64
2022/05/26 11:28:52;;;;;;;3.40;0.70;;;;;;;;;;5099773;28;20660;-64
2022/05/26 11:37:01;;;;;;;2.23;1.03;;;;;;;;;;5119780;28;20697;-63
2022/05/26 11:39:34;;;;;;;2.23;1.30;;;;;;;;;;5119054;28;20236;-63
2022/05/26 11:42:03;;;;;;;2.80;1.10;;;;;;;;;;5099638;28;20210;-63
2022/05/26 11:44:37;;;;;;;2.17;0.70;;;;;;;;;;5099310;28;20236;-63
2022/05/26 11:47:29;;;;;;;4.33;1.37;;;;;;;;;;5099311;28;20279;-64
2022/05/26 11:50:15;;;;;;;2.70;0.83;;;;;;;;;;5084195;28;20577;-63
2022/05/26 11:53:05;;;;;;;4.07;1.30;;;;;;;;;;5089641;28;20209;-64
2022/05/26 11:55:44;;;;;;;2.43;0.83;;;;;;;;;;5094385;28;20262;-63
2022/05/26 11:58:26;;;;;;;3.40;1.40;;;;;;;;;;5099265;28;20238;-64
2022/05/26 12:01:09;;;;;;;4.50;1.00;;;;;;;;;;5099028;28;20201;-64
2022/05/26 12:03:50;;;;;;;0.93;0.87;;;;;;;;;;5098968;28;20211;-64
2022/05/26 12:06:30;;;;;;;2.30;0.87;;;;;;;;;;5099294;28;20223;-63
2022/05/26 12:09:00;;;;;;;2.40;1.20;;;;;;;;;;5098643;28;20572;-64
2022/05/26 12:11:59;;;;;;;1.03;0.87;;;;;;;;;;5098657;28;20259;-64
2022/05/26 12:14:28;;;;;;;1.70;0.70;;;;;;;;;;5036512;28;20209;-63
2022/05/26 12:17:14;;;;;;;0.90;0.90;;;;;;;;;;5085300;28;20258;-63
2022/05/26 12:19:44;;;;;;;0.73;0.67;;;;;;;;;;5098412;28;20231;-63
2022/05/26 12:22:22;;;;;;;2.23;0.83;;;;;;;;;;5098825;28;20198;-64
2022/05/26 12:24:52;;;;;;;0.70;0.70;;;;;;;;;;5098831;28;20235;-63
2022/05/26 12:27:39;;;;;;;1.53;0.90;;;;;;;;;;5098726;28;20237;-63
2022/05/26 12:30:09;;;;;;;4.33;1.17;;;;;;;;;;5098444;28;20245;-63
2022/05/26 12:32:38;;;;;;;2.17;1.30;;;;;;;;;;5095184;28;20222;-63
2022/05/26 12:35:30;;;;;;;1.33;1.10;;;;;;;;;;5097346;28;20688;-63
2022/05/26 12:38:03;;;;;;;2.53;1.17;;;;;;;;;;5098318;28;20552;-63
2022/05/26 12:40:55;;;;;;;2.70;1.10;;;;;;;;;;5098370;28;20744;-63
2022/05/26 12:43:41;;;;;;;2.17;1.20;;;;;;;;;;5098500;28;20239;-63
2022/05/26 12:46:28;;;;;;;1.40;1.23;;;;;;;;;;5097323;28;20691;-62
2022/05/26 12:49:04;;;;;;;1.80;1.07;;;;;;;;;;5098335;28;20224;-63
2022/05/26 12:51:38;;;;;;;0.93;0.87;;;;;;;;;;5096874;28;20257;-63
2022/05/26 12:54:08;;;;;;;1.33;1.23;;;;;;;;;;5097547;28;20205;-63
2022/05/26 12:56:41;;;;;;;3.60;1.17;;;;;;;;;;5097224;28;20225;-63
2022/05/26 12:59:13;;;;;;;3.17;1.30;;;;;;;;;;5097518;28;20206;-63
2022/05/26 13:01:48;;;;;;;2.00;1.07;;;;;;;;;;5098035;28;20206;-63
2022/05/26 13:04:18;;;;;;;3.97;1.13;;;;;;;;;;5092750;28;20202;-63
2022/05/26 13:06:49;;;;;;;2.83;1.20;;;;;;;;;;5097892;28;20288;-63
2022/05/26 13:09:19;;;;;;;1.10;0.87;;;;;;;;;;5097518;28;20228;-63
2022/05/26 13:11:48;;;;;;;2.00;1.70;;;;;;;;;;5097297;28;20256;-63
2022/05/26 13:14:28;;;;;;;3.40;1.30;;;;;;;;;;5097640;28;20277;-63
2022/05/26 13:16:58;;;;;;;2.17;1.17;;;;;;;;;;5097308;28;20251;-63
2022/05/26 13:19:26;;;;;;;1.10;0.90;;;;;;;;;;5097280;28;20228;-63
2022/05/26 13:21:56;;;;;;;1.70;1.03;;;;;;;;;;5097550;28;20200;-63
2022/05/26 13:24:28;;;;;;;2.20;1.53;;;;;;;;;;5097217;28;20201;-63
2022/05/26 13:26:57;;;;;;;0.70;0.70;;;;;;;;;;5097249;28;20223;-63
2022/05/26 13:29:25;;;;;;;1.50;1.30;;;;;;;;;;5097174;28;20243;-63
2022/05/26 13:34:43;;;;;;;3.77;1.03;;;;;;;;;;5057991;28;20204;-63
2022/05/26 13:37:17;;;;;;;1.33;0.80;;;;;;;;;;5117967;28;20313;-63
2022/05/26 13:39:45;;;;;;;2.60;1.10;;;;;;;;;;5081193;28;20666;-63
2022/05/26 13:42:14;;;;;;;1.23;0.73;;;;;;;;;;5096675;28;20293;-63
2022/05/26 13:44:44;;;;;;;3.97;1.30;;;;;;;;;;5096410;28;20238;-63
2022/05/26 13:47:12;;;;;;;0.93;0.83;;;;;;;;;;5096548;28;20229;-65
2022/05/26 13:49:43;;;;;;;2.27;1.30;;;;;;;;;;5097266;28;20205;-63
2022/05/26 13:52:14;;;;;;;1.17;0.93;;;;;;;;;;5096921;28;20260;-63
2022/05/26 13:54:50;;;;;;;3.47;1.07;;;;;;;;;;5097036;28;20234;-63
2022/05/26 13:57:19;;;;;;;3.43;1.30;;;;;;;;;;5097178;28;20231;-63
2022/05/26 13:59:49;;;;;;;2.20;1.00;;;;;;;;;;5097578;28;20245;-63
2022/05/26 14:02:22;;;;;;;1.10;0.80;;;;;;;;;;5097119;28;20234;-62
2022/05/26 14:05:01;;;;;;;1.10;1.00;;;;;;;;;;5096837;28;20273;-62
2022/05/26 14:07:33;;;;;;;1.87;1.00;;;;;;;;;;5097085;28;20234;-64
2022/05/26 14:10:05;;;;;;;2.77;1.07;;;;;;;;;;5098498;28;20244;-64
2022/05/26 14:12:39;;;;;;;2.53;0.93;;;;;;;;;;5101330;28;20231;-68
2022/05/26 14:15:08;;;;;;;1.90;0.90;;;;;;;;;;5101017;28;20215;-65
2022/05/26 14:17:37;;;;;;;3.23;1.40;;;;;;;;;;5100278;28;20225;-64
2022/05/26 14:20:21;;;;;;;1.23;0.80;;;;;;;;;;5099958;28;20645;-67
2022/05/26 14:22:49;;;;;;;1.10;1.10;;;;;;;;;;5099709;28;20278;-65
2022/05/26 14:25:20;;;;;;;2.30;1.00;;;;;;;;;;5101128;28;20243;-65
2022/05/26 14:27:53;;;;;;;2.20;0.90;;;;;;;;;;5101091;28;20209;-65
2022/05/26 14:30:29;;;;;;;3.27;0.80;;;;;;;;;;5101042;28;20210;-67
2022/05/26 14:32:57;;;;;;;2.57;1.10;;;;;;;;;;5100835;28;20224;-65
2022/05/26 14:35:25;;;;;;;1.03;0.93;;;;;;;;;;5100892;28;20272;-65
2022/05/26 14:37:54;;;;;;;1.87;1.20;;;;;;;;;;5100526;28;20578;-65
2022/05/26 14:40:24;;;;;;;1.37;0.80;;;;;;;;;;5101045;28;20213;-66
2022/05/26 14:42:52;;;;;;;0.80;0.80;;;;;;;;;;5101024;28;20237;-67
2022/05/26 14:45:20;;;;;;;6.13;1.50;;;;;;;;;;5100900;28;20218;-67
2022/05/26 14:47:49;;;;;;;12.53;3.80;;;;;;;;;;5100142;28;20252;-63
2022/05/26 14:50:17;;;;;;;989.53;672.10;;;;;;;;;;5100818;28;20237;-70
2022/05/26 14:52:48;;;;;;;67.83;53.43;;;;;;;;;;5093651;28;20631;-71
2022/05/26 14:55:27;;;;;;;12.03;9.40;;;;;;;;;;5103760;28;20715;-71
2022/05/26 14:57:57;;;;;;;8.27;5.73;;;;;;;;;;5114024;28;20206;-71
2022/05/26 15:00:27;;;;;;;5.50;3.70;;;;;;;;;;5100527;28;20212;-70
2022/05/26 15:02:55;;;;;;;2.53;2.17;;;;;;;;;;5100144;28;20232;-70
2022/05/26 15:05:23;;;;;;;3.73;3.07;;;;;;;;;;5100167;28;20211;-71
2022/05/26 15:07:51;;;;;;;3.67;1.90;;;;;;;;;;5100219;28;20206;-68
2022/05/26 15:10:19;;;;;;;4.27;3.80;;;;;;;;;;5093799;28;20604;-68
2022/05/26 15:12:47;;;;;;;2.87;1.67;;;;;;;;;;5120417;28;20310;-70
2022/05/26 15:15:17;;;;;;;3.47;2.80;;;;;;;;;;5120245;27;20236;-70
2022/05/26 15:17:46;;;;;;;2.47;2.27;;;;;;;;;;5102251;28;20211;-71
2022/05/26 15:20:16;;;;;;;2.10;1.90;;;;;;;;;;5099455;28;20285;-68
2022/05/26 15:22:44;;;;;;;3.23;2.93;;;;;;;;;;5100031;28;20203;-71
2022/05/26 15:25:15;;;;;;;2.93;2.20;;;;;;;;;;5099522;28;20212;-71
2022/05/26 15:27:43;;;;;;;3.57;2.00;;;;;;;;;;5099515;28;20208;-71
2022/05/26 15:30:13;;;;;;;3.73;2.43;;;;;;;;;;5099744;28;20212;-71
2022/05/26 15:32:44;;;;;;;4.10;2.70;;;;;;;;;;5099299;28;20265;-70
2022/05/26 15:35:13;;;;;;;3.97;2.47;;;;;;;;;;5099603;28;20212;-70
2022/05/26 15:37:41;;;;;;;1.47;1.37;;;;;;;;;;5099542;28;20206;-70
2022/05/26 15:40:10;;;;;;;3.33;2.60;;;;;;;;;;5099553;28;20247;-69
2022/05/26 15:42:38;;;;;;;2.73;1.70;;;;;;;;;;5099061;28;20693;-67
2022/05/26 15:45:07;;;;;;;1.23;1.23;;;;;;;;;;5099159;28;20639;-68
2022/05/26 15:47:37;;;;;;;2.00;1.80;;;;;;;;;;5095357;28;20269;-68
2022/05/26 15:50:11;;;;;;;2.10;1.40;;;;;;;;;;5119778;28;20206;-69